Time;durP1;ratioP1;P1;durP2;ratioP2;P2;SDS_P1;SDS_P2;PMS_P1;PMS_P2;Temp;Humidity;BMP_temperature;BMP_pressure;BME280_temperature;BME280_humidity;BME280_pressure;Samples;Min_cycle;Max_cycle;Signal;HPM_P1;HPM_P2
2023/07/11 00:01:46;;;;;;;1999.90;999.90;;;19.20;96.40;;;;;;5049714;28;20121;-77
2023/07/11 00:04:11;;;;;;;1999.90;999.90;;;19.20;96.20;;;;;;5038342;28;20117;-77
2023/07/11 00:06:37;;;;;;;1999.90;999.90;;;19.30;96.20;;;;;;5051570;28;20084;-78
2023/07/11 00:09:02;;;;;;;1999.90;999.90;;;19.30;96.20;;;;;;5040261;28;20037;-77
2023/07/11 00:11:28;;;;;;;1999.90;999.90;;;19.20;96.50;;;;;;5054955;28;20076;-78
2023/07/11 00:13:55;;;;;;;1999.90;999.90;;;19.10;96.30;;;;;;5035847;28;20030;-77
2023/07/11 00:16:21;;;;;;;1999.90;999.90;;;19.10;96.20;;;;;;5035715;28;20048;-77
2023/07/11 00:18:47;;;;;;;1999.90;999.90;;;19.10;96.10;;;;;;5036036;28;20038;-76
2023/07/11 00:21:12;;;;;;;1999.90;999.90;;;19.00;96.20;;;;;;5033955;28;20113;-77
2023/07/11 00:23:39;;;;;;;1999.90;999.90;;;19.00;96.30;;;;;;5049623;28;20125;-77
2023/07/11 00:26:04;;;;;;;1999.90;999.90;;;19.00;96.80;;;;;;5053963;28;20099;-77
2023/07/11 00:28:30;;;;;;;1999.90;999.90;;;19.00;96.30;;;;;;5040510;28;20108;-77
2023/07/11 00:30:55;;;;;;;1999.90;999.90;;;18.90;96.70;;;;;;5038241;28;20076;-77
2023/07/11 00:33:21;;;;;;;1999.90;999.90;;;18.80;96.50;;;;;;5053030;28;20045;-77
2023/07/11 00:35:52;;;;;;;1999.90;999.90;;;18.80;96.90;;;;;;5044648;28;20046;-77
2023/07/11 00:38:18;;;;;;;1999.90;999.90;;;18.80;97.00;;;;;;5055381;28;20029;-78
2023/07/11 00:40:46;;;;;;;1999.90;999.90;;;18.80;97.30;;;;;;5054905;28;20033;-78
2023/07/11 00:43:19;;;;;;;1999.90;999.90;;;18.70;97.30;;;;;;5053554;28;20040;-78
2023/07/11 00:46:12;;;;;;;1999.90;999.90;;;18.70;96.90;;;;;;5050899;28;20508;-77
2023/07/11 00:48:41;;;;;;;1999.90;999.90;;;18.70;97.10;;;;;;5038625;28;20030;-78
2023/07/11 00:51:10;;;;;;;1999.90;999.90;;;18.70;97.50;;;;;;5053322;28;20844;-77
2023/07/11 00:53:38;;;;;;;1999.90;999.90;;;18.50;97.50;;;;;;5055150;28;20948;-77
2023/07/11 00:56:06;;;;;;;1999.90;999.90;;;18.40;97.70;;;;;;5054922;28;20049;-77
2023/07/11 00:58:35;;;;;;;1999.90;999.90;;;18.50;98.10;;;;;;5056031;28;20034;-77
2023/07/11 01:01:00;;;;;;;1999.90;999.90;;;18.50;98.40;;;;;;5041207;28;20040;-77
2023/07/11 01:03:26;;;;;;;1999.90;999.90;;;18.40;98.70;;;;;;5033256;28;20391;-76
2023/07/11 01:05:55;;;;;;;1999.90;999.90;;;18.30;99.50;;;;;;5034616;28;20069;-78
2023/07/11 01:08:21;;;;;;;1999.90;999.90;;;18.30;99.20;;;;;;5032910;28;20084;-77
2023/07/11 01:10:47;;;;;;;1999.90;999.90;;;18.20;98.70;;;;;;5033259;28;20383;-77
2023/07/11 01:13:12;;;;;;;1999.90;999.90;;;18.20;99.00;;;;;;5035014;28;20038;-77
2023/07/11 01:15:38;;;;;;;1999.90;999.90;;;18.20;99.50;;;;;;5054317;28;20045;-77
2023/07/11 01:18:04;;;;;;;1999.90;999.90;;;18.20;99.40;;;;;;5054395;28;20041;-77
2023/07/11 01:20:29;;;;;;;1999.90;999.90;;;18.10;99.30;;;;;;5034926;28;20081;-76
2023/07/11 01:22:55;;;;;;;1999.90;999.90;;;18.10;99.70;;;;;;5036818;28;20043;-77
2023/07/11 01:25:22;;;;;;;1999.90;999.90;;;18.10;99.40;;;;;;5054680;28;20037;-77
2023/07/11 01:27:49;;;;;;;1999.90;999.90;;;18.00;99.30;;;;;;5039425;28;20026;-77
2023/07/11 01:30:20;;;;;;;1999.90;999.90;;;18.00;99.30;;;;;;5034497;28;20042;-77
2023/07/11 01:32:47;;;;;;;1999.90;999.90;;;18.00;99.70;;;;;;5032214;28;20034;-77
2023/07/11 01:35:13;;;;;;;1999.90;999.90;;;18.00;99.60;;;;;;5043243;28;20069;-77
2023/07/11 01:37:39;;;;;;;1999.90;999.90;;;17.90;99.90;;;;;;5051982;28;20499;-77
2023/07/11 01:40:05;;;;;;;1999.90;999.90;;;18.00;99.90;;;;;;5037897;28;20125;-77
2023/07/11 01:42:32;;;;;;;1999.90;999.90;;;18.00;99.90;;;;;;5032657;28;20060;-77
2023/07/11 01:44:57;;;;;;;1999.90;999.90;;;17.90;99.90;;;;;;5050810;28;20504;-77
2023/07/11 01:47:23;;;;;;;1999.90;999.90;;;17.90;99.90;;;;;;5048986;28;20037;-76
2023/07/11 01:49:48;;;;;;;1999.90;999.90;;;18.00;99.90;;;;;;5054053;28;20519;-78
2023/07/11 01:52:21;;;;;;;1999.90;999.90;;;17.90;99.90;;;;;;5051403;28;20479;-77
2023/07/11 01:54:48;;;;;;;1999.90;999.90;;;17.90;99.90;;;;;;5054101;28;20046;-77
2023/07/11 01:57:14;;;;;;;1999.90;999.90;;;17.90;99.90;;;;;;5052900;28;20048;-77
2023/07/11 01:59:40;;;;;;;1999.90;999.90;;;17.90;99.90;;;;;;5054050;28;20157;-77
2023/07/11 02:02:07;;;;;;;1999.90;999.90;;;17.90;99.90;;;;;;5053710;28;20121;-77
2023/07/11 02:04:33;;;;;;;1999.90;999.90;;;17.90;99.90;;;;;;5053750;28;20034;-76
2023/07/11 02:06:59;;;;;;;1999.90;999.90;;;17.80;99.90;;;;;;5054422;28;20038;-77
2023/07/11 02:09:25;;;;;;;1999.90;999.90;;;17.80;99.90;;;;;;5040905;28;20034;-77
2023/07/11 02:11:51;;;;;;;1999.90;999.90;;;17.80;99.90;;;;;;5039337;28;20069;-77
2023/07/11 02:14:19;;;;;;;1999.90;999.90;;;17.70;99.90;;;;;;5053541;28;20068;-77
2023/07/11 02:16:46;;;;;;;1999.90;999.90;;;17.70;99.90;;;;;;5035710;28;20486;-78
2023/07/11 02:19:13;;;;;;;1999.90;999.90;;;17.60;99.90;;;;;;5050465;28;20088;-76
2023/07/11 02:21:39;;;;;;;1999.90;999.90;;;17.60;99.90;;;;;;5054256;28;20572;-77
2023/07/11 02:24:07;;;;;;;1999.90;999.90;;;17.50;99.90;;;;;;5057247;28;20053;-77
2023/07/11 02:26:33;;;;;;;1999.90;999.90;;;17.50;99.90;;;;;;5057361;28;20491;-77
2023/07/11 02:28:59;;;;;;;1999.90;999.90;;;17.50;99.90;;;;;;5057520;28;20037;-77
2023/07/11 02:31:24;;;;;;;1999.90;999.90;;;17.50;99.90;;;;;;5045994;28;20057;-77
2023/07/11 02:33:50;;;;;;;1999.90;999.90;;;17.50;99.90;;;;;;5080484;22;20084;-74
2023/07/11 02:36:15;;;;;;;1999.90;999.90;;;17.50;99.90;;;;;;5055585;28;20048;-74
2023/07/11 02:38:41;;;;;;;1999.90;999.90;;;17.50;99.90;;;;;;5057084;28;20033;-74
2023/07/11 02:41:06;;;;;;;1999.90;999.90;;;17.40;99.90;;;;;;5055261;28;20033;-74
2023/07/11 02:43:32;;;;;;;1999.90;999.90;;;17.40;99.90;;;;;;5056918;28;20034;-74
2023/07/11 02:45:57;;;;;;;1999.90;999.90;;;17.40;99.90;;;;;;5060754;28;20577;-74
2023/07/11 02:48:25;;;;;;;1999.90;999.90;;;17.40;99.90;;;;;;5063066;28;20041;-74
2023/07/11 02:50:51;;;;;;;1999.90;999.90;;;17.50;99.90;;;;;;5076118;28;20124;-74
2023/07/11 02:53:17;;;;;;;1999.90;999.90;;;17.50;99.90;;;;;;5073585;28;20502;-74
2023/07/11 02:55:43;;;;;;;1999.90;999.90;;;17.50;99.90;;;;;;5076035;28;20040;-74
2023/07/11 02:58:08;;;;;;;1999.90;999.90;;;17.50;99.90;;;;;;5057266;28;20026;-74
2023/07/11 03:00:35;;;;;;;1999.90;999.90;;;17.50;99.90;;;;;;5057412;28;20479;-74
2023/07/11 03:03:01;;;;;;;1999.90;999.90;;;17.50;99.90;;;;;;5062961;28;20038;-74
2023/07/11 03:05:27;;;;;;;1999.90;999.90;;;17.50;99.90;;;;;;5058550;28;20037;-74
2023/07/11 03:07:52;;;;;;;1999.90;999.90;;;17.50;99.90;;;;;;5060352;28;20100;-74
2023/07/11 03:10:18;;;;;;;1999.90;999.90;;;17.50;99.90;;;;;;5058286;28;20033;-74
2023/07/11 03:12:43;;;;;;;1999.90;999.90;;;17.50;99.90;;;;;;5057853;28;20061;-74
2023/07/11 03:15:09;;;;;;;1999.90;999.90;;;17.50;99.90;;;;;;5057112;28;20078;-74
2023/07/11 03:17:35;;;;;;;1999.90;999.90;;;17.50;99.90;;;;;;5061265;28;20454;-74
2023/07/11 03:20:00;;;;;;;1999.90;999.90;;;17.50;99.90;;;;;;5062689;28;20107;-74
2023/07/11 03:22:27;;;;;;;1999.90;999.90;;;17.40;99.90;;;;;;5078172;28;20072;-73
2023/07/11 03:24:53;;;;;;;1999.90;999.90;;;17.40;99.90;;;;;;5078200;28;20068;-74
2023/07/11 03:27:18;;;;;;;1999.90;999.90;;;17.40;99.90;;;;;;5067963;28;20112;-74
2023/07/11 03:29:44;;;;;;;1999.90;999.90;;;17.40;99.90;;;;;;5076905;28;20496;-74
2023/07/11 03:32:10;;;;;;;1999.90;999.90;;;17.40;99.90;;;;;;5075398;28;20547;-74
2023/07/11 03:34:36;;;;;;;1999.90;999.90;;;17.30;99.90;;;;;;5076346;28;20127;-74
2023/07/11 03:37:02;;;;;;;1999.90;999.90;;;17.30;99.90;;;;;;5071186;28;20116;-74
2023/07/11 03:39:27;;;;;;;1999.90;999.90;;;17.30;99.90;;;;;;5057592;28;20037;-74
2023/07/11 03:41:53;;;;;;;1999.90;999.90;;;17.30;99.90;;;;;;5054580;28;20519;-74
2023/07/11 03:44:18;;;;;;;1999.90;999.90;;;17.30;99.90;;;;;;5055184;28;21189;-74
2023/07/11 03:46:44;;;;;;;1999.90;999.90;;;17.30;99.90;;;;;;5056535;28;20048;-74
2023/07/11 03:49:10;;;;;;;1999.90;999.90;;;17.30;99.90;;;;;;5058092;28;20045;-73
2023/07/11 03:51:35;;;;;;;1999.90;999.90;;;17.30;99.90;;;;;;5062925;28;20116;-74
2023/07/11 03:54:01;;;;;;;1999.90;999.90;;;17.40;99.90;;;;;;5067911;28;20039;-74
2023/07/11 03:56:27;;;;;;;1999.90;999.90;;;17.50;99.90;;;;;;5077715;28;20115;-73
2023/07/11 03:58:53;;;;;;;1999.90;999.90;;;17.50;99.90;;;;;;5078182;28;20423;-73
2023/07/11 04:01:19;;;;;;;1999.90;999.90;;;17.50;99.90;;;;;;5073323;28;20045;-74
2023/07/11 04:03:44;;;;;;;1999.90;999.90;;;17.60;99.90;;;;;;5073426;28;20030;-73
2023/07/11 04:06:10;;;;;;;1999.90;999.90;;;17.70;99.90;;;;;;5064072;28;20049;-73
2023/07/11 04:08:36;;;;;;;1999.90;999.90;;;17.60;99.90;;;;;;5075541;28;20029;-75
2023/07/11 04:11:02;;;;;;;1999.90;999.90;;;17.60;99.90;;;;;;5075328;28;20032;-73
2023/07/11 04:13:28;;;;;;;1999.90;999.90;;;17.60;99.90;;;;;;5073775;28;20052;-73
2023/07/11 04:15:53;;;;;;;1999.90;999.90;;;17.60;99.90;;;;;;5074116;28;20067;-73
2023/07/11 04:18:19;;;;;;;1999.90;999.90;;;17.60;99.90;;;;;;5074241;28;20040;-73
2023/07/11 04:20:45;;;;;;;1999.90;999.90;;;17.70;99.90;;;;;;5075536;28;20045;-72
2023/07/11 04:23:13;;;;;;;1999.90;999.90;;;17.80;99.90;;;;;;5074788;28;20029;-73
2023/07/11 04:25:38;;;;;;;1999.90;999.90;;;17.80;99.90;;;;;;5075320;28;20040;-73
2023/07/11 04:28:05;;;;;;;1999.90;999.90;;;17.80;99.90;;;;;;5075405;28;20025;-73
2023/07/11 04:30:31;;;;;;;1999.90;999.90;;;17.80;99.90;;;;;;5075389;28;20053;-73
2023/07/11 04:32:57;;;;;;;1999.90;999.90;;;17.80;99.90;;;;;;5074439;28;20111;-73
2023/07/11 04:35:23;;;;;;;1999.90;999.90;;;17.80;99.90;;;;;;5074842;28;20048;-73
2023/07/11 04:37:48;;;;;;;1999.90;999.90;;;17.80;99.90;;;;;;5075579;28;20252;-73
2023/07/11 04:40:14;;;;;;;1999.90;999.90;;;17.80;99.90;;;;;;5075492;28;20450;-74
2023/07/11 04:42:40;;;;;;;1999.90;999.90;;;17.90;99.90;;;;;;5074591;28;20037;-73
2023/07/11 04:45:07;;;;;;;1999.90;999.90;;;17.90;99.90;;;;;;5074902;28;20033;-73
2023/07/11 04:47:33;;;;;;;1999.90;999.90;;;18.00;99.90;;;;;;5074856;28;20040;-73
2023/07/11 04:49:59;;;;;;;1999.90;999.90;;;18.10;99.90;;;;;;5074946;28;20040;-74
2023/07/11 04:52:25;;;;;;;1999.90;999.90;;;18.10;99.90;;;;;;5074134;28;20033;-73
2023/07/11 04:54:50;;;;;;;1999.90;999.90;;;18.20;99.90;;;;;;5074734;28;20073;-73
2023/07/11 04:57:16;;;;;;;1999.90;999.90;;;18.20;99.90;;;;;;5076326;28;20037;-73
2023/07/11 04:59:41;;;;;;;1999.90;999.90;;;18.30;99.90;;;;;;5076196;28;20041;-74
2023/07/11 05:02:07;;;;;;;1999.90;999.90;;;18.40;99.90;;;;;;5074399;28;20027;-73
2023/07/11 05:04:32;;;;;;;1999.90;999.90;;;18.50;99.60;;;;;;5074844;28;20029;-73
2023/07/11 05:07:00;;;;;;;1999.90;999.90;;;18.60;99.90;;;;;;5074725;28;20040;-73
2023/07/11 05:09:27;;;;;;;1999.90;999.90;;;18.70;99.90;;;;;;5075049;28;20451;-74
2023/07/11 05:11:53;;;;;;;1999.90;999.90;;;18.80;99.90;;;;;;5075033;28;20044;-73
2023/07/11 05:14:18;;;;;;;1999.90;999.90;;;18.90;99.90;;;;;;5075070;28;20048;-73
2023/07/11 05:16:44;;;;;;;1999.90;999.90;;;19.00;99.90;;;;;;5075085;28;20123;-73
2023/07/11 05:19:09;;;;;;;1999.90;999.90;;;19.10;99.90;;;;;;5075258;28;20044;-73
2023/07/11 05:21:35;;;;;;;1999.90;999.90;;;19.20;99.50;;;;;;5079048;28;20033;-74
2023/07/11 05:24:04;;;;;;;1999.90;999.90;;;19.30;99.70;;;;;;5079639;28;20044;-73
2023/07/11 05:26:30;;;;;;;1999.90;999.90;;;19.40;99.50;;;;;;5079718;28;20033;-73
2023/07/11 05:28:55;;;;;;;1999.90;999.90;;;19.50;98.30;;;;;;5080688;28;20029;-74
2023/07/11 05:31:21;;;;;;;1999.90;999.90;;;19.60;97.90;;;;;;5076578;28;20393;-75
2023/07/11 05:33:47;;;;;;;1999.90;999.90;;;19.70;98.00;;;;;;5064980;28;20474;-74
2023/07/11 05:38:51;;;;;;;1999.90;999.90;;;19.80;97.10;;;;;;5058098;28;20038;-74
2023/07/11 05:41:17;;;;;;;1999.90;999.90;;;19.90;96.70;;;;;;5057932;28;20067;-73
2023/07/11 05:43:43;;;;;;;1999.90;999.90;;;20.00;96.60;;;;;;5059071;28;20060;-74
2023/07/11 05:46:09;;;;;;;1999.90;999.90;;;20.00;96.10;;;;;;5060560;28;20037;-73
2023/07/11 05:48:35;;;;;;;1999.90;999.90;;;20.10;96.20;;;;;;5061903;28;20079;-74
2023/07/11 05:51:10;;;;;;;1999.90;999.90;;;20.10;96.30;;;;;;5060709;28;20060;-74
2023/07/11 05:53:36;;;;;;;1999.90;999.90;;;20.20;96.00;;;;;;5060041;28;20037;-73
2023/07/11 05:56:02;;;;;;;1999.90;999.90;;;20.30;95.90;;;;;;5058077;28;20052;-72
2023/07/11 05:58:30;;;;;;;1999.90;999.90;;;20.40;95.60;;;;;;5055670;28;20489;-72
2023/07/11 06:00:56;;;;;;;1999.90;999.90;;;20.50;95.30;;;;;;5056876;28;20112;-72
2023/07/11 06:03:36;;;;;;;1999.90;999.90;;;20.60;95.20;;;;;;5056930;28;20434;-72
2023/07/11 06:06:05;;;;;;;1999.90;999.90;;;20.70;95.30;;;;;;5055558;28;20096;-73
2023/07/11 06:08:32;;;;;;;1999.90;999.90;;;20.80;95.50;;;;;;5056568;28;20029;-73
2023/07/11 06:11:00;;;;;;;1999.90;999.90;;;20.90;95.00;;;;;;5056542;28;20116;-73
2023/07/11 06:13:27;;;;;;;1999.90;999.90;;;21.10;95.00;;;;;;5056675;28;20049;-73
2023/07/11 06:16:08;;;;;;;1999.90;999.90;;;21.10;94.70;;;;;;5056884;28;20036;-71
2023/07/11 06:18:37;;;;;;;1999.90;999.90;;;21.20;94.50;;;;;;5057010;28;20065;-71
2023/07/11 06:21:07;;;;;;;1999.90;999.90;;;21.40;94.60;;;;;;5055174;28;20036;-71
2023/07/11 06:23:33;;;;;;;1999.90;999.90;;;21.40;94.60;;;;;;5056598;28;20030;-71
2023/07/11 06:25:58;;;;;;;1999.90;999.90;;;21.50;94.40;;;;;;5056696;28;20039;-71
2023/07/11 06:28:24;;;;;;;1999.90;999.90;;;21.60;93.90;;;;;;5056847;28;20033;-71
2023/07/11 06:30:50;;;;;;;1999.90;999.90;;;21.70;93.60;;;;;;5056548;28;20061;-72
2023/07/11 06:33:17;;;;;;;1999.90;999.90;;;21.80;93.20;;;;;;5056496;28;20048;-73
2023/07/11 06:35:49;;;;;;;1999.90;999.90;;;21.90;92.80;;;;;;5056454;28;20041;-71
2023/07/11 06:38:14;;;;;;;1999.90;999.90;;;22.00;92.50;;;;;;5056788;28;20033;-71
2023/07/11 06:40:40;;;;;;;1999.90;999.90;;;22.20;92.50;;;;;;5056268;28;20487;-73
2023/07/11 06:43:06;;;;;;;1999.90;999.90;;;22.40;92.30;;;;;;5056293;28;20030;-72
2023/07/11 06:45:31;;;;;;;1999.90;999.90;;;22.50;92.10;;;;;;5056073;28;20037;-71
2023/07/11 06:47:57;;;;;;;1999.90;999.90;;;22.60;91.80;;;;;;5056430;28;20434;-72
2023/07/11 06:50:22;;;;;;;1999.90;999.90;;;22.70;91.70;;;;;;5056359;28;20030;-71
2023/07/11 06:52:48;;;;;;;1999.90;999.90;;;22.90;91.60;;;;;;5055873;28;20033;-71
2023/07/11 06:55:14;;;;;;;1999.90;999.90;;;22.80;91.00;;;;;;5055511;28;20383;-71
2023/07/11 06:57:40;;;;;;;1999.90;999.90;;;23.10;90.50;;;;;;5056269;28;20399;-73
2023/07/11 07:00:06;;;;;;;1999.90;999.90;;;23.20;90.40;;;;;;5056056;28;20033;-72
2023/07/11 07:02:32;;;;;;;1999.90;999.90;;;23.40;90.50;;;;;;5055778;28;20556;-71
2023/07/11 07:04:58;;;;;;;1999.90;999.90;;;23.60;90.30;;;;;;5055511;28;20041;-73
2023/07/11 07:07:23;;;;;;;1999.90;999.90;;;23.90;89.30;;;;;;5055797;28;20036;-71
2023/07/11 07:09:50;;;;;;;1999.90;999.90;;;24.10;87.30;;;;;;5056192;28;20039;-71
2023/07/11 07:12:16;;;;;;;1999.90;999.90;;;24.30;86.30;;;;;;5055808;28;20037;-72
2023/07/11 07:14:42;;;;;;;1999.90;999.90;;;24.40;86.00;;;;;;5055670;28;20033;-71
2023/07/11 07:17:07;;;;;;;1999.90;999.90;;;24.60;83.90;;;;;;5055853;28;20037;-71
2023/07/11 07:19:33;;;;;;;1999.90;999.90;;;24.80;83.00;;;;;;5055772;28;20088;-72
2023/07/11 07:21:58;;;;;;;1999.90;999.90;;;24.80;81.80;;;;;;5055603;28;20169;-71
2023/07/11 07:24:24;;;;;;;1999.90;999.90;;;25.00;83.10;;;;;;5055343;28;20030;-71
2023/07/11 07:26:49;;;;;;;1999.90;999.90;;;25.30;81.90;;;;;;5054996;28;20073;-72
2023/07/11 07:29:15;;;;;;;1999.90;999.90;;;25.50;79.80;;;;;;5055427;28;20036;-71
2023/07/11 07:31:41;;;;;;;1999.90;999.90;;;25.60;80.80;;;;;;5055447;28;20029;-72
2023/07/11 07:34:07;;;;;;;1999.90;999.90;;;25.90;80.60;;;;;;5054794;28;20033;-72
2023/07/11 07:36:33;;;;;;;1999.90;999.90;;;26.20;79.90;;;;;;5055491;28;20545;-72
2023/07/11 07:38:59;;;;;;;1999.90;999.90;;;26.40;79.40;;;;;;5055082;28;20033;-72
2023/07/11 07:41:25;;;;;;;1999.90;999.90;;;26.50;78.30;;;;;;5054894;28;20081;-73
2023/07/11 07:43:50;;;;;;;1999.90;999.90;;;26.70;78.50;;;;;;5055236;28;20470;-72
2023/07/11 07:46:17;;;;;;;1999.90;999.90;;;26.90;77.90;;;;;;5053932;28;20041;-71
2023/07/11 07:48:43;;;;;;;1999.90;999.90;;;27.10;76.90;;;;;;5055323;28;20025;-72
2023/07/11 07:51:15;;;;;;;1999.90;999.90;;;27.20;76.40;;;;;;5054953;28;20060;-74
2023/07/11 07:53:40;;;;;;;1999.90;999.90;;;27.30;75.60;;;;;;5054003;28;20168;-71
2023/07/11 07:56:15;;;;;;;1999.90;999.90;;;27.50;76.10;;;;;;5054993;28;20041;-72
2023/07/11 07:58:41;;;;;;;1999.90;999.90;;;27.80;74.80;;;;;;5055320;28;20028;-72
2023/07/11 08:01:06;;;;;;;1999.90;999.90;;;27.90;75.00;;;;;;5054959;28;20399;-72
2023/07/11 08:03:33;;;;;;;1999.90;999.90;;;28.20;73.70;;;;;;5054867;28;20035;-72
2023/07/11 08:05:59;;;;;;;1999.90;999.90;;;28.40;73.70;;;;;;5054190;28;20037;-72
2023/07/11 08:08:25;;;;;;;1999.90;999.90;;;28.70;73.90;;;;;;5055151;28;20037;-72
2023/07/11 08:10:51;;;;;;;1999.90;999.90;;;29.00;70.50;;;;;;5055082;28;20037;-74
2023/07/11 08:13:16;;;;;;;1999.90;999.90;;;29.10;71.10;;;;;;5054851;28;20530;-72
2023/07/11 08:15:42;;;;;;;1999.90;999.90;;;29.10;71.60;;;;;;5055037;28;20038;-71
2023/07/11 08:18:09;;;;;;;1999.90;999.90;;;29.40;69.70;;;;;;5054875;28;20379;-72
2023/07/11 08:20:35;;;;;;;1999.90;999.90;;;29.50;69.50;;;;;;5054874;28;20025;-72
2023/07/11 08:23:00;;;;;;;1999.90;999.90;;;29.60;68.90;;;;;;5054463;28;20422;-73
2023/07/11 08:25:27;;;;;;;1999.90;999.90;;;29.80;67.90;;;;;;5054568;28;20057;-72
2023/07/11 08:27:53;;;;;;;1999.90;999.90;;;30.10;65.90;;;;;;5053447;28;20515;-72
2023/07/11 08:30:18;;;;;;;1999.90;999.90;;;30.00;64.70;;;;;;5054660;28;20037;-73
2023/07/11 08:32:44;;;;;;;1999.90;999.90;;;30.30;64.70;;;;;;5054308;28;20034;-72
2023/07/11 08:35:09;;;;;;;1999.90;999.90;;;30.60;64.20;;;;;;5053413;28;20052;-72
2023/07/11 08:37:35;;;;;;;1999.90;999.90;;;30.80;63.90;;;;;;5105978;22;20052;-75
2023/07/11 08:40:02;;;;;;;1999.90;999.90;;;31.00;64.40;;;;;;5094681;28;20040;-74
2023/07/11 08:42:31;;;;;;;1999.90;999.90;;;31.20;63.00;;;;;;5093896;28;20116;-74
2023/07/11 08:45:25;;;;;;;1999.90;999.90;;;31.30;63.10;;;;;;5094439;28;20037;-75
2023/07/11 08:48:03;;;;;;;1999.90;999.90;;;31.20;61.70;;;;;;5094833;28;20420;-75
2023/07/11 08:50:35;;;;;;;1999.90;999.90;;;31.40;61.70;;;;;;5091906;28;20501;-74
2023/07/11 08:53:09;;;;;;;1999.90;999.90;;;31.50;62.50;;;;;;5092298;28;20055;-74
2023/07/11 08:55:38;;;;;;;1999.90;999.90;;;31.50;62.60;;;;;;5092977;28;20826;-75
2023/07/11 08:58:21;;;;;;;1999.90;999.90;;;31.80;62.20;;;;;;5093885;28;20043;-75
2023/07/11 09:00:48;;;;;;;1999.90;999.90;;;32.00;60.60;;;;;;5093018;28;20489;-75
2023/07/11 09:03:30;;;;;;;1999.90;999.90;;;32.20;60.90;;;;;;5094335;28;20032;-75
2023/07/11 09:06:13;;;;;;;1999.90;999.90;;;32.50;62.20;;;;;;5094519;28;20047;-75
2023/07/11 09:08:42;;;;;;;1999.90;999.90;;;32.70;60.50;;;;;;5094694;28;20029;-75
2023/07/11 09:11:27;;;;;;;1999.90;999.90;;;32.70;60.90;;;;;;5092796;28;20032;-75
2023/07/11 09:14:17;;;;;;;1999.90;999.90;;;32.80;60.00;;;;;;5094385;28;20028;-75
2023/07/11 09:16:55;;;;;;;1999.90;999.90;;;32.90;61.00;;;;;;5093886;28;20082;-75
2023/07/11 09:19:30;;;;;;;1999.90;999.90;;;32.90;60.70;;;;;;5097806;28;20029;-75
2023/07/11 09:22:21;;;;;;;1999.90;999.90;;;32.90;61.60;;;;;;5095162;28;20033;-74
2023/07/11 09:24:54;;;;;;;1999.90;999.90;;;32.80;61.50;;;;;;5098008;28;20032;-75
2023/07/11 09:27:42;;;;;;;1999.90;999.90;;;33.00;60.90;;;;;;5097362;28;20041;-75
2023/07/11 09:30:36;;;;;;;1999.90;999.90;;;33.20;62.60;;;;;;5098110;28;20035;-75
2023/07/11 09:33:28;;;;;;;1999.90;999.90;;;33.30;62.90;;;;;;5078411;28;20449;-75
2023/07/11 09:35:55;;;;;;;1999.90;999.90;;;33.50;60.40;;;;;;5097393;28;20044;-75
2023/07/11 09:38:35;;;;;;;1999.90;999.90;;;33.40;61.40;;;;;;5097382;28;20028;-75
2023/07/11 09:41:08;;;;;;;1999.90;999.90;;;33.40;60.70;;;;;;5097325;28;20063;-75
2023/07/11 09:43:34;;;;;;;1999.90;999.90;;;33.60;61.30;;;;;;5097764;28;20033;-75
2023/07/11 09:45:59;;;;;;;1999.90;999.90;;;33.80;61.10;;;;;;5097287;28;20033;-75
2023/07/11 09:48:31;;;;;;;1999.90;999.90;;;34.00;61.90;;;;;;5096002;28;20032;-75
2023/07/11 09:51:36;;;;;;;1999.90;999.90;;;33.80;61.40;;;;;;5097138;28;20517;-75
2023/07/11 09:54:04;;;;;;;1999.90;999.90;;;33.90;60.70;;;;;;5097315;28;20614;-74
2023/07/11 09:56:43;;;;;;;1999.90;999.90;;;33.70;60.40;;;;;;5096845;28;20512;-74
2023/07/11 09:59:11;;;;;;;1999.90;999.90;;;33.80;61.00;;;;;;5097648;28;20497;-75
2023/07/11 10:01:37;;;;;;;1999.90;999.90;;;34.00;60.60;;;;;;5096826;28;20493;-75
2023/07/11 10:04:06;;;;;;;1999.90;999.90;;;34.00;60.40;;;;;;5095898;28;20029;-75
2023/07/11 10:06:53;;;;;;;1999.90;999.90;;;34.40;60.00;;;;;;5096914;28;20119;-77
2023/07/11 10:09:25;;;;;;;1999.90;999.90;;;34.70;59.00;;;;;;5097384;28;20028;-75
2023/07/11 10:11:56;;;;;;;1999.90;999.90;;;34.80;57.90;;;;;;5096736;28;20039;-75
2023/07/11 10:14:35;;;;;;;1999.90;999.90;;;34.70;59.50;;;;;;5097060;28;20028;-74
2023/07/11 10:17:20;;;;;;;1999.90;999.90;;;34.80;58.10;;;;;;5097077;28;20036;-75
2023/07/11 10:19:53;;;;;;;1999.90;999.90;;;35.10;58.50;;;;;;5095438;28;20036;-75
2023/07/11 10:22:26;;;;;;;1999.90;999.90;;;35.30;58.00;;;;;;5096138;28;20035;-75
2023/07/11 10:25:04;;;;;;;1999.90;999.90;;;35.40;57.80;;;;;;5096964;28;20143;-75
2023/07/11 10:27:36;;;;;;;1999.90;999.90;;;35.30;58.20;;;;;;5096338;28;20501;-75
2023/07/11 10:30:03;;;;;;;1999.90;999.90;;;35.70;56.30;;;;;;5095663;28;20133;-74
2023/07/11 10:32:44;;;;;;;1999.90;999.90;;;35.60;57.10;;;;;;5096433;28;20525;-75
2023/07/11 10:35:20;;;;;;;1999.90;999.90;;;35.60;56.60;;;;;;5096710;28;20558;-75
2023/07/11 10:37:55;;;;;;;1999.90;999.90;;;35.30;57.10;;;;;;5096098;28;20083;-75
2023/07/11 10:40:24;;;;;;;1999.90;999.90;;;35.40;57.30;;;;;;5096927;28;20037;-75
2023/07/11 10:42:54;;;;;;;1999.90;999.90;;;35.60;55.20;;;;;;5094554;28;20041;-75
2023/07/11 10:45:30;;;;;;;1999.90;999.90;;;35.60;56.80;;;;;;5096289;28;20032;-75
2023/07/11 10:47:59;;;;;;;1999.90;999.90;;;35.80;57.50;;;;;;5095998;28;20086;-75
2023/07/11 10:51:09;;;;;;;1999.90;999.90;;;36.20;55.80;;;;;;5096222;28;20540;-74
2023/07/11 10:53:46;;;;;;;1999.90;999.90;;;35.80;56.00;;;;;;5083039;28;20049;-75
2023/07/11 10:56:26;;;;;;;1999.90;999.90;;;35.70;55.50;;;;;;5096276;28;20036;-75
2023/07/11 10:58:53;;;;;;;1999.90;999.90;;;35.70;57.10;;;;;;5096382;28;20025;-74
2023/07/11 11:01:27;;;;;;;1999.90;999.90;;;35.80;56.30;;;;;;5096158;28;20086;-75
2023/07/11 11:04:21;;;;;;;1999.90;999.90;;;35.80;56.50;;;;;;5094812;28;20028;-74
2023/07/11 11:06:50;;;;;;;1999.90;999.90;;;36.00;56.10;;;;;;5093686;28;20089;-74
2023/07/11 11:09:42;;;;;;;1999.90;999.90;;;36.40;54.90;;;;;;5094749;28;20036;-75
2023/07/11 11:12:17;;;;;;;1999.90;999.90;;;36.60;53.50;;;;;;5096092;28;20116;-74
2023/07/11 11:15:10;;;;;;;1999.90;999.90;;;36.20;55.70;;;;;;5095937;28;20036;-74
2023/07/11 11:17:52;;;;;;;1999.90;999.90;;;36.20;55.00;;;;;;5094458;28;20044;-75
2023/07/11 11:20:27;;;;;;;1999.90;999.90;;;36.40;55.00;;;;;;5096278;28;20032;-74
2023/07/11 11:23:39;;;;;;;1999.90;999.90;;;36.60;54.60;;;;;;5095991;28;20045;-74
2023/07/11 11:26:40;;;;;;;1999.90;999.90;;;36.40;54.40;;;;;;5094130;28;20079;-76
2023/07/11 11:29:36;;;;;;;1999.90;999.90;;;36.80;55.50;;;;;;5083437;28;20509;-74
2023/07/11 11:32:38;;;;;;;1999.90;999.90;;;37.00;55.20;;;;;;5095739;28;20093;-75
2023/07/11 11:35:14;;;;;;;1999.90;999.90;;;36.70;55.10;;;;;;5095928;28;20815;-75
2023/07/11 11:38:30;;;;;;;1999.90;999.90;;;37.20;55.50;;;;;;5095421;28;20036;-75
2023/07/11 11:41:03;;;;;;;1999.90;999.90;;;37.80;54.10;;;;;;5085975;28;20095;-80
2023/07/11 11:43:28;;;;;;;1999.90;999.90;;;37.70;54.20;;;;;;5096197;27;20457;-74
2023/07/11 11:45:56;;;;;;;1999.90;999.90;;;37.60;53.90;;;;;;5094295;28;20041;-75
2023/07/11 11:48:27;;;;;;;1999.90;999.90;;;37.30;55.20;;;;;;5095571;28;20104;-74
2023/07/11 11:50:54;;;;;;;1999.90;999.90;;;37.70;55.40;;;;;;5095447;28;20107;-74
2023/07/11 11:53:44;;;;;;;1999.90;999.90;;;38.00;54.90;;;;;;5095988;28;20031;-76
2023/07/11 11:56:13;;;;;;;1999.90;999.90;;;37.90;54.80;;;;;;5095458;28;20040;-73
2023/07/11 11:59:03;;;;;;;1999.90;999.90;;;38.20;52.80;;;;;;5095796;28;20116;-73
2023/07/11 12:01:38;;;;;;;1999.90;999.90;;;38.10;52.80;;;;;;5095181;28;20568;-74
2023/07/11 12:04:28;;;;;;;1999.90;999.90;;;38.30;53.50;;;;;;5095738;28;20037;-74
2023/07/11 12:07:05;;;;;;;1999.90;999.90;;;38.50;53.00;;;;;;5095544;28;20036;-83
2023/07/11 12:09:33;;;;;;;1999.90;999.90;;;38.90;52.70;;;;;;5095766;28;20028;-73
2023/07/11 12:12:08;;;;;;;1999.90;999.90;;;39.00;52.20;;;;;;5095315;28;20115;-74
2023/07/11 12:14:38;;;;;;;1999.90;999.90;;;39.00;52.00;;;;;;5093638;28;20036;-73